sensor_id;sensor_type;location;lat;lon;timestamp;P1;durP1;ratioP1;P2;durP2;ratioP2
22064;SDS011;11197;53.110;8.468;2023-03-29T00:01:56;8.02;;;4.13;;
22064;SDS011;11197;53.110;8.468;2023-03-29T00:04:22;8.32;;;4.00;;
22064;SDS011;11197;53.110;8.468;2023-03-29T00:06:51;7.70;;;3.70;;
22064;SDS011;11197;53.110;8.468;2023-03-29T00:09:19;8.15;;;3.83;;
22064;SDS011;11197;53.110;8.468;2023-03-29T00:11:46;7.40;;;3.67;;
22064;SDS011;11197;53.110;8.468;2023-03-29T00:14:12;6.78;;;3.40;;
22064;SDS011;11197;53.110;8.468;2023-03-29T00:16:37;6.70;;;3.88;;
22064;SDS011;11197;53.110;8.468;2023-03-29T00:19:04;9.70;;;4.03;;
22064;SDS011;11197;53.110;8.468;2023-03-29T00:21:30;8.85;;;3.78;;
22064;SDS011;11197;53.110;8.468;2023-03-29T00:23:56;7.18;;;3.58;;
22064;SDS011;11197;53.110;8.468;2023-03-29T00:26:22;8.27;;;3.95;;
22064;SDS011;11197;53.110;8.468;2023-03-29T00:28:48;7.95;;;3.72;;
22064;SDS011;11197;53.110;8.468;2023-03-29T00:31:15;11.77;;;4.10;;
22064;SDS011;11197;53.110;8.468;2023-03-29T00:33:42;8.07;;;4.07;;
22064;SDS011;11197;53.110;8.468;2023-03-29T00:36:10;6.35;;;3.75;;
22064;SDS011;11197;53.110;8.468;2023-03-29T00:38:37;6.85;;;3.50;;
22064;SDS011;11197;53.110;8.468;2023-03-29T00:41:04;8.80;;;3.78;;
22064;SDS011;11197;53.110;8.468;2023-03-29T00:46:16;8.45;;;3.90;;
22064;SDS011;11197;53.110;8.468;2023-03-29T00:48:42;8.90;;;4.15;;
22064;SDS011;11197;53.110;8.468;2023-03-29T00:51:09;7.05;;;3.88;;
22064;SDS011;11197;53.110;8.468;2023-03-29T00:53:40;7.57;;;4.22;;
22064;SDS011;11197;53.110;8.468;2023-03-29T00:56:12;9.38;;;4.18;;
22064;SDS011;11197;53.110;8.468;2023-03-29T00:58:56;8.10;;;3.95;;
22064;SDS011;11197;53.110;8.468;2023-03-29T01:01:39;8.15;;;3.72;;
22064;SDS011;11197;53.110;8.468;2023-03-29T01:04:12;7.80;;;4.03;;
22064;SDS011;11197;53.110;8.468;2023-03-29T01:06:48;7.38;;;3.90;;
22064;SDS011;11197;53.110;8.468;2023-03-29T01:09:18;11.80;;;4.13;;
22064;SDS011;11197;53.110;8.468;2023-03-29T01:11:50;7.05;;;3.53;;
22064;SDS011;11197;53.110;8.468;2023-03-29T01:16:55;7.80;;;3.55;;
22064;SDS011;11197;53.110;8.468;2023-03-29T01:19:22;8.05;;;3.80;;
22064;SDS011;11197;53.110;8.468;2023-03-29T01:21:54;8.20;;;3.53;;
22064;SDS011;11197;53.110;8.468;2023-03-29T01:29:43;8.77;;;4.15;;
22064;SDS011;11197;53.110;8.468;2023-03-29T01:32:18;7.65;;;4.00;;
22064;SDS011;11197;53.110;8.468;2023-03-29T01:34:58;7.00;;;3.75;;
22064;SDS011;11197;53.110;8.468;2023-03-29T01:38:01;6.85;;;3.60;;
22064;SDS011;11197;53.110;8.468;2023-03-29T01:40:37;7.00;;;3.90;;
22064;SDS011;11197;53.110;8.468;2023-03-29T01:48:17;8.70;;;4.13;;
22064;SDS011;11197;53.110;8.468;2023-03-29T01:51:10;9.65;;;4.30;;
22064;SDS011;11197;53.110;8.468;2023-03-29T01:54:42;6.15;;;3.80;;
22064;SDS011;11197;53.110;8.468;2023-03-29T01:56:39;8.85;;;4.28;;
22064;SDS011;11197;53.110;8.468;2023-03-29T01:59:12;9.35;;;4.35;;
22064;SDS011;11197;53.110;8.468;2023-03-29T02:01:46;9.73;;;4.18;;
22064;SDS011;11197;53.110;8.468;2023-03-29T02:04:17;7.75;;;4.20;;
22064;SDS011;11197;53.110;8.468;2023-03-29T02:06:48;8.02;;;4.18;;
22064;SDS011;11197;53.110;8.468;2023-03-29T02:09:18;9.27;;;4.30;;
22064;SDS011;11197;53.110;8.468;2023-03-29T02:11:46;8.70;;;4.65;;
22064;SDS011;11197;53.110;8.468;2023-03-29T02:14:13;9.40;;;4.53;;
22064;SDS011;11197;53.110;8.468;2023-03-29T02:16:39;10.68;;;4.50;;
22064;SDS011;11197;53.110;8.468;2023-03-29T02:19:05;9.80;;;4.68;;
22064;SDS011;11197;53.110;8.468;2023-03-29T02:21:36;9.90;;;4.28;;
22064;SDS011;11197;53.110;8.468;2023-03-29T02:24:04;10.43;;;5.10;;
22064;SDS011;11197;53.110;8.468;2023-03-29T02:26:33;8.82;;;4.80;;
22064;SDS011;11197;53.110;8.468;2023-03-29T02:29:00;9.55;;;4.80;;
22064;SDS011;11197;53.110;8.468;2023-03-29T02:31:34;7.93;;;5.10;;
22064;SDS011;11197;53.110;8.468;2023-03-29T02:34:11;12.18;;;5.32;;
22064;SDS011;11197;53.110;8.468;2023-03-29T02:36:46;8.60;;;5.18;;
22064;SDS011;11197;53.110;8.468;2023-03-29T02:39:14;7.13;;;4.82;;
22064;SDS011;11197;53.110;8.468;2023-03-29T02:41:45;11.25;;;5.30;;
22064;SDS011;11197;53.110;8.468;2023-03-29T02:44:15;10.55;;;5.10;;
22064;SDS011;11197;53.110;8.468;2023-03-29T02:46:42;9.85;;;5.53;;
22064;SDS011;11197;53.110;8.468;2023-03-29T02:49:10;12.60;;;5.85;;
22064;SDS011;11197;53.110;8.468;2023-03-29T02:51:36;9.65;;;5.60;;
22064;SDS011;11197;53.110;8.468;2023-03-29T02:56:39;10.82;;;6.35;;
22064;SDS011;11197;53.110;8.468;2023-03-29T02:59:08;10.90;;;6.70;;
22064;SDS011;11197;53.110;8.468;2023-03-29T03:01:33;11.30;;;6.60;;
22064;SDS011;11197;53.110;8.468;2023-03-29T03:04:01;11.40;;;7.18;;
22064;SDS011;11197;53.110;8.468;2023-03-29T03:06:29;11.23;;;6.78;;
22064;SDS011;11197;53.110;8.468;2023-03-29T03:08:55;11.40;;;6.93;;
22064;SDS011;11197;53.110;8.468;2023-03-29T03:11:20;12.93;;;7.57;;
22064;SDS011;11197;53.110;8.468;2023-03-29T03:13:48;11.35;;;7.80;;
22064;SDS011;11197;53.110;8.468;2023-03-29T03:16:14;14.07;;;8.32;;
22064;SDS011;11197;53.110;8.468;2023-03-29T03:18:43;14.32;;;9.02;;
22064;SDS011;11197;53.110;8.468;2023-03-29T03:21:10;12.70;;;8.68;;
22064;SDS011;11197;53.110;8.468;2023-03-29T03:23:36;14.00;;;8.90;;
22064;SDS011;11197;53.110;8.468;2023-03-29T03:26:01;11.65;;;8.13;;
22064;SDS011;11197;53.110;8.468;2023-03-29T03:28:29;15.35;;;9.15;;
22064;SDS011;11197;53.110;8.468;2023-03-29T03:30:57;13.18;;;9.27;;
22064;SDS011;11197;53.110;8.468;2023-03-29T03:33:23;17.13;;;9.68;;
22064;SDS011;11197;53.110;8.468;2023-03-29T03:36:23;14.48;;;8.88;;
22064;SDS011;11197;53.110;8.468;2023-03-29T03:38:51;15.00;;;9.85;;
22064;SDS011;11197;53.110;8.468;2023-03-29T03:41:18;15.82;;;9.30;;
22064;SDS011;11197;53.110;8.468;2023-03-29T03:43:44;15.38;;;10.15;;
22064;SDS011;11197;53.110;8.468;2023-03-29T03:46:13;17.90;;;10.10;;
22064;SDS011;11197;53.110;8.468;2023-03-29T03:48:43;14.40;;;9.65;;
22064;SDS011;11197;53.110;8.468;2023-03-29T03:51:30;17.63;;;10.60;;
22064;SDS011;11197;53.110;8.468;2023-03-29T03:53:57;15.80;;;11.05;;
22064;SDS011;11197;53.110;8.468;2023-03-29T03:56:32;17.05;;;11.10;;
22064;SDS011;11197;53.110;8.468;2023-03-29T03:59:01;15.65;;;10.52;;
22064;SDS011;11197;53.110;8.468;2023-03-29T04:01:31;17.92;;;11.90;;
22064;SDS011;11197;53.110;8.468;2023-03-29T04:04:15;17.15;;;11.35;;
22064;SDS011;11197;53.110;8.468;2023-03-29T04:06:54;18.10;;;11.85;;
22064;SDS011;11197;53.110;8.468;2023-03-29T04:09:37;18.17;;;12.45;;
22064;SDS011;11197;53.110;8.468;2023-03-29T04:12:26;19.70;;;12.30;;
22064;SDS011;11197;53.110;8.468;2023-03-29T04:14:53;19.25;;;12.90;;
22064;SDS011;11197;53.110;8.468;2023-03-29T04:17:20;17.33;;;12.15;;
22064;SDS011;11197;53.110;8.468;2023-03-29T04:19:54;20.17;;;12.93;;
22064;SDS011;11197;53.110;8.468;2023-03-29T04:22:22;18.45;;;12.20;;
22064;SDS011;11197;53.110;8.468;2023-03-29T04:24:50;21.50;;;12.18;;
22064;SDS011;11197;53.110;8.468;2023-03-29T04:27:42;18.25;;;12.88;;
22064;SDS011;11197;53.110;8.468;2023-03-29T04:30:32;17.55;;;11.93;;
22064;SDS011;11197;53.110;8.468;2023-03-29T04:33:16;20.38;;;14.52;;
22064;SDS011;11197;53.110;8.468;2023-03-29T04:35:48;16.08;;;12.15;;
22064;SDS011;11197;53.110;8.468;2023-03-29T04:38:16;17.17;;;11.15;;
22064;SDS011;11197;53.110;8.468;2023-03-29T04:40:48;16.70;;;11.35;;
22064;SDS011;11197;53.110;8.468;2023-03-29T04:43:41;17.17;;;10.88;;
22064;SDS011;11197;53.110;8.468;2023-03-29T04:46:19;16.02;;;11.27;;
22064;SDS011;11197;53.110;8.468;2023-03-29T04:49:05;15.38;;;11.10;;
22064;SDS011;11197;53.110;8.468;2023-03-29T04:51:34;16.85;;;11.18;;
22064;SDS011;11197;53.110;8.468;2023-03-29T04:54:03;18.63;;;11.32;;
22064;SDS011;11197;53.110;8.468;2023-03-29T04:56:38;17.88;;;10.45;;
22064;SDS011;11197;53.110;8.468;2023-03-29T04:59:27;14.80;;;10.00;;
22064;SDS011;11197;53.110;8.468;2023-03-29T05:01:53;14.13;;;10.32;;
22064;SDS011;11197;53.110;8.468;2023-03-29T05:04:19;14.63;;;9.98;;
22064;SDS011;11197;53.110;8.468;2023-03-29T05:07:00;13.93;;;9.77;;
22064;SDS011;11197;53.110;8.468;2023-03-29T05:09:29;14.43;;;9.90;;
22064;SDS011;11197;53.110;8.468;2023-03-29T05:11:55;12.80;;;9.13;;
22064;SDS011;11197;53.110;8.468;2023-03-29T05:14:22;14.40;;;9.25;;
22064;SDS011;11197;53.110;8.468;2023-03-29T05:16:48;12.10;;;8.60;;
22064;SDS011;11197;53.110;8.468;2023-03-29T05:19:15;14.50;;;9.25;;
22064;SDS011;11197;53.110;8.468;2023-03-29T05:21:45;12.00;;;8.95;;
22064;SDS011;11197;53.110;8.468;2023-03-29T05:24:15;13.73;;;9.07;;
22064;SDS011;11197;53.110;8.468;2023-03-29T05:26:45;13.23;;;8.57;;
22064;SDS011;11197;53.110;8.468;2023-03-29T05:29:16;13.90;;;9.00;;
22064;SDS011;11197;53.110;8.468;2023-03-29T05:34:15;12.32;;;8.30;;
22064;SDS011;11197;53.110;8.468;2023-03-29T05:36:45;13.48;;;7.90;;
22064;SDS011;11197;53.110;8.468;2023-03-29T05:39:12;11.93;;;8.25;;
22064;SDS011;11197;53.110;8.468;2023-03-29T05:41:39;11.90;;;8.55;;
22064;SDS011;11197;53.110;8.468;2023-03-29T05:44:24;11.88;;;8.40;;
22064;SDS011;11197;53.110;8.468;2023-03-29T05:46:56;12.57;;;8.38;;
22064;SDS011;11197;53.110;8.468;2023-03-29T05:49:22;13.32;;;8.35;;
22064;SDS011;11197;53.110;8.468;2023-03-29T05:52:11;12.23;;;8.10;;
22064;SDS011;11197;53.110;8.468;2023-03-29T05:54:40;16.45;;;8.27;;
22064;SDS011;11197;53.110;8.468;2023-03-29T05:57:07;12.20;;;8.18;;
22064;SDS011;11197;53.110;8.468;2023-03-29T05:59:33;11.82;;;8.10;;
22064;SDS011;11197;53.110;8.468;2023-03-29T06:01:59;13.18;;;7.72;;
22064;SDS011;11197;53.110;8.468;2023-03-29T06:04:27;12.50;;;7.70;;
22064;SDS011;11197;53.110;8.468;2023-03-29T06:07:15;11.75;;;7.55;;
22064;SDS011;11197;53.110;8.468;2023-03-29T06:09:46;11.85;;;7.70;;
22064;SDS011;11197;53.110;8.468;2023-03-29T06:12:12;10.70;;;8.00;;
22064;SDS011;11197;53.110;8.468;2023-03-29T06:14:46;12.63;;;8.10;;
22064;SDS011;11197;53.110;8.468;2023-03-29T06:17:28;11.50;;;7.55;;
22064;SDS011;11197;53.110;8.468;2023-03-29T06:19:54;10.07;;;7.18;;
22064;SDS011;11197;53.110;8.468;2023-03-29T06:22:24;10.80;;;7.18;;
22064;SDS011;11197;53.110;8.468;2023-03-29T06:24:49;12.15;;;7.40;;
22064;SDS011;11197;53.110;8.468;2023-03-29T06:27:22;13.60;;;7.50;;
22064;SDS011;11197;53.110;8.468;2023-03-29T06:29:49;9.80;;;6.75;;
22064;SDS011;11197;53.110;8.468;2023-03-29T06:32:16;13.45;;;7.47;;
22064;SDS011;11197;53.110;8.468;2023-03-29T06:34:48;11.10;;;7.13;;
22064;SDS011;11197;53.110;8.468;2023-03-29T06:37:29;10.10;;;7.10;;
22064;SDS011;11197;53.110;8.468;2023-03-29T06:40:06;10.38;;;6.80;;
22064;SDS011;11197;53.110;8.468;2023-03-29T06:42:40;12.70;;;7.40;;
22064;SDS011;11197;53.110;8.468;2023-03-29T06:45:30;11.00;;;7.32;;
22064;SDS011;11197;53.110;8.468;2023-03-29T06:48:01;8.57;;;6.75;;
22064;SDS011;11197;53.110;8.468;2023-03-29T06:50:29;11.63;;;7.68;;
22064;SDS011;11197;53.110;8.468;2023-03-29T06:53:15;14.88;;;7.50;;
22064;SDS011;11197;53.110;8.468;2023-03-29T06:55:45;11.23;;;7.10;;
22064;SDS011;11197;53.110;8.468;2023-03-29T06:58:32;11.23;;;6.90;;
22064;SDS011;11197;53.110;8.468;2023-03-29T07:01:05;9.43;;;7.03;;
22064;SDS011;11197;53.110;8.468;2023-03-29T07:03:47;11.25;;;7.05;;
22064;SDS011;11197;53.110;8.468;2023-03-29T07:06:17;12.10;;;7.82;;
22064;SDS011;11197;53.110;8.468;2023-03-29T07:08:47;11.02;;;7.35;;
22064;SDS011;11197;53.110;8.468;2023-03-29T07:11:34;11.88;;;6.93;;
22064;SDS011;11197;53.110;8.468;2023-03-29T07:14:14;9.98;;;7.07;;
22064;SDS011;11197;53.110;8.468;2023-03-29T07:16:43;11.45;;;6.97;;
22064;SDS011;11197;53.110;8.468;2023-03-29T07:19:16;10.43;;;6.68;;
22064;SDS011;11197;53.110;8.468;2023-03-29T07:21:50;10.02;;;7.03;;
22064;SDS011;11197;53.110;8.468;2023-03-29T07:24:19;10.07;;;7.00;;
22064;SDS011;11197;53.110;8.468;2023-03-29T07:26:46;13.85;;;7.15;;
22064;SDS011;11197;53.110;8.468;2023-03-29T07:29:13;9.68;;;6.88;;
22064;SDS011;11197;53.110;8.468;2023-03-29T07:31:40;11.25;;;7.00;;
22064;SDS011;11197;53.110;8.468;2023-03-29T07:34:27;11.00;;;6.75;;
22064;SDS011;11197;53.110;8.468;2023-03-29T07:36:55;11.23;;;7.30;;
22064;SDS011;11197;53.110;8.468;2023-03-29T07:39:22;11.32;;;6.95;;
22064;SDS011;11197;53.110;8.468;2023-03-29T07:42:09;11.48;;;6.82;;
22064;SDS011;11197;53.110;8.468;2023-03-29T07:44:35;12.63;;;7.57;;
22064;SDS011;11197;53.110;8.468;2023-03-29T07:47:02;10.95;;;7.10;;
22064;SDS011;11197;53.110;8.468;2023-03-29T07:49:31;10.15;;;7.22;;
22064;SDS011;11197;53.110;8.468;2023-03-29T07:51:58;11.77;;;7.90;;
22064;SDS011;11197;53.110;8.468;2023-03-29T07:54:25;13.48;;;7.28;;
22064;SDS011;11197;53.110;8.468;2023-03-29T07:57:16;12.55;;;8.02;;
22064;SDS011;11197;53.110;8.468;2023-03-29T07:59:49;12.63;;;8.07;;
22064;SDS011;11197;53.110;8.468;2023-03-29T08:02:21;11.52;;;7.95;;
22064;SDS011;11197;53.110;8.468;2023-03-29T08:04:52;13.07;;;7.85;;
22064;SDS011;11197;53.110;8.468;2023-03-29T08:07:39;13.68;;;7.75;;
22064;SDS011;11197;53.110;8.468;2023-03-29T08:10:16;12.57;;;8.18;;
22064;SDS011;11197;53.110;8.468;2023-03-29T08:13:14;12.73;;;8.25;;
22064;SDS011;11197;53.110;8.468;2023-03-29T08:15:51;13.57;;;8.38;;
22064;SDS011;11197;53.110;8.468;2023-03-29T08:18:35;12.55;;;8.45;;
22064;SDS011;11197;53.110;8.468;2023-03-29T08:21:03;16.85;;;8.48;;
22064;SDS011;11197;53.110;8.468;2023-03-29T08:23:29;12.82;;;8.70;;
22064;SDS011;11197;53.110;8.468;2023-03-29T08:26:18;13.70;;;9.18;;
22064;SDS011;11197;53.110;8.468;2023-03-29T08:28:45;15.90;;;10.00;;
22064;SDS011;11197;53.110;8.468;2023-03-29T08:31:12;15.07;;;9.05;;
22064;SDS011;11197;53.110;8.468;2023-03-29T08:33:40;12.25;;;9.20;;
22064;SDS011;11197;53.110;8.468;2023-03-29T08:36:27;15.27;;;9.93;;
22064;SDS011;11197;53.110;8.468;2023-03-29T08:38:55;16.55;;;9.82;;
22064;SDS011;11197;53.110;8.468;2023-03-29T08:41:35;17.00;;;10.85;;
22064;SDS011;11197;53.110;8.468;2023-03-29T08:44:21;17.48;;;11.65;;
22064;SDS011;11197;53.110;8.468;2023-03-29T08:47:22;17.23;;;11.30;;
22064;SDS011;11197;53.110;8.468;2023-03-29T08:49:51;16.90;;;11.27;;
22064;SDS011;11197;53.110;8.468;2023-03-29T08:55:15;17.83;;;13.40;;
22064;SDS011;11197;53.110;8.468;2023-03-29T09:00:44;19.55;;;13.38;;
22064;SDS011;11197;53.110;8.468;2023-03-29T09:03:18;16.75;;;12.55;;
22064;SDS011;11197;53.110;8.468;2023-03-29T09:06:12;19.08;;;12.80;;
22064;SDS011;11197;53.110;8.468;2023-03-29T09:08:45;22.02;;;13.38;;
22064;SDS011;11197;53.110;8.468;2023-03-29T09:27:09;19.73;;;14.70;;
22064;SDS011;11197;53.110;8.468;2023-03-29T09:32:52;23.05;;;15.07;;
22064;SDS011;11197;53.110;8.468;2023-03-29T09:35:30;21.55;;;14.52;;
22064;SDS011;11197;53.110;8.468;2023-03-29T09:38:06;18.75;;;13.90;;
22064;SDS011;11197;53.110;8.468;2023-03-29T09:40:48;18.98;;;15.15;;
22064;SDS011;11197;53.110;8.468;2023-03-29T09:43:29;21.67;;;15.23;;
22064;SDS011;11197;53.110;8.468;2023-03-29T09:46:02;21.77;;;15.55;;
22064;SDS011;11197;53.110;8.468;2023-03-29T09:48:40;21.52;;;15.35;;
22064;SDS011;11197;53.110;8.468;2023-03-29T09:51:10;21.88;;;15.68;;
22064;SDS011;11197;53.110;8.468;2023-03-29T09:53:38;21.90;;;17.08;;
22064;SDS011;11197;53.110;8.468;2023-03-29T09:56:22;24.58;;;18.08;;
22064;SDS011;11197;53.110;8.468;2023-03-29T09:58:51;23.02;;;17.50;;
22064;SDS011;11197;53.110;8.468;2023-03-29T10:01:18;22.45;;;17.38;;
22064;SDS011;11197;53.110;8.468;2023-03-29T10:03:47;23.73;;;17.30;;
22064;SDS011;11197;53.110;8.468;2023-03-29T10:06:18;22.45;;;16.92;;
22064;SDS011;11197;53.110;8.468;2023-03-29T10:08:52;24.75;;;17.95;;
22064;SDS011;11197;53.110;8.468;2023-03-29T10:11:32;21.85;;;17.00;;
22064;SDS011;11197;53.110;8.468;2023-03-29T10:14:04;24.48;;;18.50;;
22064;SDS011;11197;53.110;8.468;2023-03-29T10:16:40;23.90;;;17.15;;
22064;SDS011;11197;53.110;8.468;2023-03-29T10:19:18;26.10;;;17.55;;
22064;SDS011;11197;53.110;8.468;2023-03-29T10:21:46;24.27;;;17.98;;
22064;SDS011;11197;53.110;8.468;2023-03-29T10:24:16;19.23;;;15.88;;
22064;SDS011;11197;53.110;8.468;2023-03-29T10:26:44;21.02;;;16.75;;
22064;SDS011;11197;53.110;8.468;2023-03-29T10:29:11;22.73;;;16.20;;
22064;SDS011;11197;53.110;8.468;2023-03-29T10:31:38;26.02;;;16.98;;
22064;SDS011;11197;53.110;8.468;2023-03-29T10:34:06;22.23;;;16.60;;
22064;SDS011;11197;53.110;8.468;2023-03-29T10:36:35;20.33;;;15.90;;
22064;SDS011;11197;53.110;8.468;2023-03-29T10:39:09;23.67;;;15.95;;
22064;SDS011;11197;53.110;8.468;2023-03-29T10:41:38;21.83;;;15.20;;
22064;SDS011;11197;53.110;8.468;2023-03-29T10:44:04;20.88;;;15.30;;
22064;SDS011;11197;53.110;8.468;2023-03-29T10:46:31;22.13;;;15.68;;
22064;SDS011;11197;53.110;8.468;2023-03-29T10:49:13;19.08;;;15.07;;
22064;SDS011;11197;53.110;8.468;2023-03-29T10:51:43;18.35;;;14.60;;
22064;SDS011;11197;53.110;8.468;2023-03-29T10:54:12;20.88;;;14.85;;
22064;SDS011;11197;53.110;8.468;2023-03-29T10:56:42;22.23;;;15.10;;
22064;SDS011;11197;53.110;8.468;2023-03-29T11:27:19;19.42;;;14.60;;
22064;SDS011;11197;53.110;8.468;2023-03-29T11:30:06;19.63;;;16.13;;
22064;SDS011;11197;53.110;8.468;2023-03-29T11:35:50;17.77;;;13.98;;
22064;SDS011;11197;53.110;8.468;2023-03-29T11:38:28;19.20;;;13.77;;
22064;SDS011;11197;53.110;8.468;2023-03-29T11:44:19;20.13;;;14.68;;
22064;SDS011;11197;53.110;8.468;2023-03-29T11:49:40;24.60;;;16.30;;
22064;SDS011;11197;53.110;8.468;2023-03-29T11:57:38;17.08;;;11.38;;
22064;SDS011;11197;53.110;8.468;2023-03-29T12:05:58;15.68;;;12.70;;
22064;SDS011;11197;53.110;8.468;2023-03-29T12:08:46;16.58;;;13.20;;
22064;SDS011;11197;53.110;8.468;2023-03-29T12:16:37;15.32;;;12.23;;
22064;SDS011;11197;53.110;8.468;2023-03-29T12:21:45;15.27;;;11.43;;
22064;SDS011;11197;53.110;8.468;2023-03-29T12:24:15;14.80;;;12.25;;
22064;SDS011;11197;53.110;8.468;2023-03-29T12:38:21;15.60;;;11.98;;
22064;SDS011;11197;53.110;8.468;2023-03-29T12:41:10;16.50;;;12.15;;
22064;SDS011;11197;53.110;8.468;2023-03-29T12:43:59;15.77;;;11.68;;
22064;SDS011;11197;53.110;8.468;2023-03-29T12:46:50;17.52;;;12.10;;
22064;SDS011;11197;53.110;8.468;2023-03-29T12:49:30;17.92;;;11.85;;
22064;SDS011;11197;53.110;8.468;2023-03-29T12:51:58;19.15;;;12.50;;
22064;SDS011;11197;53.110;8.468;2023-03-29T12:54:29;14.77;;;11.63;;
22064;SDS011;11197;53.110;8.468;2023-03-29T12:57:00;16.10;;;11.88;;
22064;SDS011;11197;53.110;8.468;2023-03-29T12:59:44;18.23;;;12.23;;
22064;SDS011;11197;53.110;8.468;2023-03-29T13:04:48;16.08;;;11.75;;
22064;SDS011;11197;53.110;8.468;2023-03-29T13:12:24;17.42;;;12.30;;
22064;SDS011;11197;53.110;8.468;2023-03-29T13:14:58;15.73;;;12.35;;
22064;SDS011;11197;53.110;8.468;2023-03-29T13:17:30;18.08;;;12.15;;
22064;SDS011;11197;53.110;8.468;2023-03-29T13:25:36;16.17;;;12.57;;
22064;SDS011;11197;53.110;8.468;2023-03-29T13:30:45;16.13;;;12.48;;
22064;SDS011;11197;53.110;8.468;2023-03-29T13:36:13;17.70;;;13.20;;
22064;SDS011;11197;53.110;8.468;2023-03-29T13:38:45;15.90;;;12.25;;
22064;SDS011;11197;53.110;8.468;2023-03-29T13:43:56;16.98;;;13.02;;
22064;SDS011;11197;53.110;8.468;2023-03-29T13:46:38;17.15;;;12.82;;
22064;SDS011;11197;53.110;8.468;2023-03-29T13:51:39;16.20;;;13.05;;
22064;SDS011;11197;53.110;8.468;2023-03-29T13:57:01;17.40;;;13.88;;
22064;SDS011;11197;53.110;8.468;2023-03-29T13:59:42;13.20;;;9.00;;
22064;SDS011;11197;53.110;8.468;2023-03-29T14:02:23;16.10;;;12.98;;
22064;SDS011;11197;53.110;8.468;2023-03-29T14:05:11;9.80;;;7.72;;
22064;SDS011;11197;53.110;8.468;2023-03-29T14:07:40;14.60;;;11.77;;
22064;SDS011;11197;53.110;8.468;2023-03-29T14:10:18;16.42;;;12.18;;
22064;SDS011;11197;53.110;8.468;2023-03-29T14:12:49;15.82;;;12.70;;
22064;SDS011;11197;53.110;8.468;2023-03-29T14:15:19;16.05;;;13.00;;
22064;SDS011;11197;53.110;8.468;2023-03-29T14:20:16;15.75;;;13.27;;
22064;SDS011;11197;53.110;8.468;2023-03-29T14:22:43;20.27;;;13.07;;
22064;SDS011;11197;53.110;8.468;2023-03-29T14:25:15;17.92;;;12.70;;
22064;SDS011;11197;53.110;8.468;2023-03-29T14:27:42;15.70;;;11.73;;
22064;SDS011;11197;53.110;8.468;2023-03-29T14:30:19;14.20;;;11.35;;
22064;SDS011;11197;53.110;8.468;2023-03-29T14:32:53;13.02;;;11.35;;
22064;SDS011;11197;53.110;8.468;2023-03-29T14:35:26;13.88;;;11.05;;
22064;SDS011;11197;53.110;8.468;2023-03-29T14:37:53;13.10;;;11.23;;
22064;SDS011;11197;53.110;8.468;2023-03-29T14:40:20;13.48;;;11.15;;
22064;SDS011;11197;53.110;8.468;2023-03-29T14:42:46;11.95;;;10.18;;
22064;SDS011;11197;53.110;8.468;2023-03-29T14:45:15;14.30;;;11.10;;
22064;SDS011;11197;53.110;8.468;2023-03-29T14:47:42;12.68;;;10.73;;
22064;SDS011;11197;53.110;8.468;2023-03-29T14:50:21;13.65;;;10.55;;
22064;SDS011;11197;53.110;8.468;2023-03-29T14:52:51;12.57;;;10.70;;
22064;SDS011;11197;53.110;8.468;2023-03-29T14:55:18;12.65;;;10.73;;
22064;SDS011;11197;53.110;8.468;2023-03-29T14:57:48;16.58;;;10.90;;
22064;SDS011;11197;53.110;8.468;2023-03-29T15:00:17;13.68;;;10.73;;
22064;SDS011;11197;53.110;8.468;2023-03-29T15:02:47;14.38;;;11.55;;
22064;SDS011;11197;53.110;8.468;2023-03-29T15:05:27;14.85;;;12.30;;
22064;SDS011;11197;53.110;8.468;2023-03-29T15:08:06;14.93;;;11.73;;
22064;SDS011;11197;53.110;8.468;2023-03-29T15:10:37;10.77;;;8.73;;
22064;SDS011;11197;53.110;8.468;2023-03-29T15:13:05;9.10;;;4.60;;
22064;SDS011;11197;53.110;8.468;2023-03-29T15:15:32;8.15;;;6.80;;
22064;SDS011;11197;53.110;8.468;2023-03-29T15:18:02;14.35;;;11.68;;
22064;SDS011;11197;53.110;8.468;2023-03-29T15:20:33;15.90;;;11.68;;
22064;SDS011;11197;53.110;8.468;2023-03-29T15:23:06;15.00;;;11.20;;
22064;SDS011;11197;53.110;8.468;2023-03-29T15:28:50;12.95;;;10.30;;
22064;SDS011;11197;53.110;8.468;2023-03-29T15:31:13;12.98;;;10.02;;
22064;SDS011;11197;53.110;8.468;2023-03-29T15:33:42;11.32;;;9.82;;
22064;SDS011;11197;53.110;8.468;2023-03-29T15:36:09;13.70;;;9.93;;
22064;SDS011;11197;53.110;8.468;2023-03-29T15:38:37;10.85;;;9.40;;
22064;SDS011;11197;53.110;8.468;2023-03-29T15:41:05;10.85;;;9.70;;
22064;SDS011;11197;53.110;8.468;2023-03-29T15:43:32;10.73;;;9.07;;
22064;SDS011;11197;53.110;8.468;2023-03-29T15:45:59;10.52;;;8.75;;
22064;SDS011;11197;53.110;8.468;2023-03-29T15:48:26;11.10;;;8.90;;
22064;SDS011;11197;53.110;8.468;2023-03-29T15:50:53;11.25;;;8.48;;
22064;SDS011;11197;53.110;8.468;2023-03-29T15:53:19;11.55;;;8.88;;
22064;SDS011;11197;53.110;8.468;2023-03-29T15:55:51;12.98;;;9.60;;
22064;SDS011;11197;53.110;8.468;2023-03-29T15:58:39;11.73;;;9.30;;
22064;SDS011;11197;53.110;8.468;2023-03-29T16:01:12;12.10;;;9.50;;
22064;SDS011;11197;53.110;8.468;2023-03-29T16:07:49;12.60;;;9.73;;
22064;SDS011;11197;53.110;8.468;2023-03-29T16:10:15;13.13;;;9.75;;
22064;SDS011;11197;53.110;8.468;2023-03-29T16:16:30;15.38;;;11.57;;
22064;SDS011;11197;53.110;8.468;2023-03-29T16:18:57;14.85;;;12.07;;
22064;SDS011;11197;53.110;8.468;2023-03-29T16:24:14;16.02;;;11.85;;
22064;SDS011;11197;53.110;8.468;2023-03-29T16:26:43;14.95;;;12.32;;
22064;SDS011;11197;53.110;8.468;2023-03-29T16:29:10;13.75;;;11.65;;
22064;SDS011;11197;53.110;8.468;2023-03-29T16:31:36;14.23;;;11.50;;
22064;SDS011;11197;53.110;8.468;2023-03-29T16:34:02;14.95;;;11.45;;
22064;SDS011;11197;53.110;8.468;2023-03-29T16:36:29;14.45;;;11.13;;
22064;SDS011;11197;53.110;8.468;2023-03-29T16:38:58;14.00;;;11.35;;
22064;SDS011;11197;53.110;8.468;2023-03-29T16:41:24;12.68;;;10.65;;
22064;SDS011;11197;53.110;8.468;2023-03-29T16:43:51;12.10;;;10.45;;
22064;SDS011;11197;53.110;8.468;2023-03-29T16:46:18;13.10;;;10.60;;
22064;SDS011;11197;53.110;8.468;2023-03-29T16:48:43;12.48;;;10.40;;
22064;SDS011;11197;53.110;8.468;2023-03-29T16:51:10;12.25;;;10.38;;
22064;SDS011;11197;53.110;8.468;2023-03-29T16:53:36;13.75;;;10.13;;
22064;SDS011;11197;53.110;8.468;2023-03-29T16:56:02;14.02;;;10.20;;
22064;SDS011;11197;53.110;8.468;2023-03-29T16:58:29;12.77;;;9.80;;
22064;SDS011;11197;53.110;8.468;2023-03-29T17:00:55;13.25;;;9.93;;
22064;SDS011;11197;53.110;8.468;2023-03-29T17:03:21;15.77;;;10.55;;
22064;SDS011;11197;53.110;8.468;2023-03-29T17:05:48;11.55;;;9.55;;
22064;SDS011;11197;53.110;8.468;2023-03-29T17:08:15;11.90;;;10.30;;
22064;SDS011;11197;53.110;8.468;2023-03-29T17:10:42;12.18;;;10.30;;
22064;SDS011;11197;53.110;8.468;2023-03-29T17:13:08;12.35;;;10.68;;
22064;SDS011;11197;53.110;8.468;2023-03-29T17:15:34;14.18;;;10.45;;
22064;SDS011;11197;53.110;8.468;2023-03-29T17:18:00;14.65;;;10.75;;
22064;SDS011;11197;53.110;8.468;2023-03-29T17:20:27;13.30;;;10.07;;
22064;SDS011;11197;53.110;8.468;2023-03-29T17:22:53;12.45;;;10.57;;
22064;SDS011;11197;53.110;8.468;2023-03-29T17:25:20;13.80;;;10.80;;
22064;SDS011;11197;53.110;8.468;2023-03-29T17:27:47;14.82;;;11.45;;
22064;SDS011;11197;53.110;8.468;2023-03-29T17:30:13;13.45;;;10.50;;
22064;SDS011;11197;53.110;8.468;2023-03-29T17:32:40;13.48;;;10.90;;
22064;SDS011;11197;53.110;8.468;2023-03-29T17:35:06;14.35;;;11.75;;
22064;SDS011;11197;53.110;8.468;2023-03-29T17:37:35;13.10;;;11.52;;